createdAt,value
2023-04-15T00:01:48.051Z,100478.50
2023-04-15T00:04:14.749Z,100476.91
2023-04-15T00:06:41.698Z,100463.63
2023-04-15T00:09:08.142Z,100473.28
2023-04-15T00:11:34.798Z,100459.97
2023-04-15T00:14:01.284Z,100464.44
2023-04-15T00:16:28.436Z,100469.03
2023-04-15T00:18:55.075Z,100458.09
2023-04-15T00:21:21.820Z,100470.28
2023-04-15T00:23:52.577Z,100473.16
2023-04-15T00:26:19.767Z,100465.88
2023-04-15T00:28:48.937Z,100465.06
2023-04-15T00:31:15.686Z,100465.28
2023-04-15T00:33:42.260Z,100470.00
2023-04-15T00:36:08.845Z,100456.22
2023-04-15T00:38:39.131Z,100459.56
2023-04-15T00:41:05.743Z,100468.44
2023-04-15T00:43:32.306Z,100462.75
2023-04-15T00:45:59.963Z,100455.16
2023-04-15T00:48:27.943Z,100458.78
2023-04-15T00:50:54.420Z,100454.34
2023-04-15T00:53:20.892Z,100454.84
2023-04-15T00:55:47.510Z,100464.97
2023-04-15T00:58:14.758Z,100467.53
2023-04-15T01:00:42.934Z,100458.50
2023-04-15T01:03:10.035Z,100451.69
2023-04-15T01:05:36.934Z,100441.53
2023-04-15T01:08:03.742Z,100450.09
2023-04-15T01:10:31.898Z,100455.31
2023-04-15T01:12:58.476Z,100447.22
2023-04-15T01:15:25.805Z,100442.81
2023-04-15T01:17:52.713Z,100448.53
2023-04-15T01:20:20.597Z,100433.94
2023-04-15T01:22:47.101Z,100429.84
2023-04-15T01:25:18.606Z,100439.66
2023-04-15T01:27:45.555Z,100433.16
2023-04-15T01:30:12.509Z,100433.66
2023-04-15T01:32:39.145Z,100429.25
2023-04-15T01:35:06.205Z,100428.75
2023-04-15T01:37:33.604Z,100430.50
2023-04-15T01:40:00.206Z,100432.09
2023-04-15T01:42:27.602Z,100432.59
2023-04-15T01:44:54.458Z,100437.47
2023-04-15T01:47:21.576Z,100429.75
2023-04-15T01:49:48.452Z,100423.22
2023-04-15T01:52:15.690Z,100422.16
2023-04-15T01:54:42.526Z,100410.44
2023-04-15T01:57:09.370Z,100411.25
2023-04-15T01:59:36.252Z,100408.06
2023-04-15T02:02:02.905Z,100410.13
2023-04-15T02:04:29.442Z,100410.63
2023-04-15T02:06:59.821Z,100414.28
2023-04-15T02:09:26.337Z,100405.72
2023-04-15T02:11:54.234Z,100402.06
2023-04-15T02:14:20.970Z,100404.34
2023-04-15T02:16:47.583Z,100402.88
2023-04-15T02:19:15.864Z,100409.06
2023-04-15T02:21:42.400Z,100397.34
2023-04-15T02:24:09.097Z,100404.63
2023-04-15T02:26:35.575Z,100406.72
2023-04-15T02:29:02.464Z,100406.72
2023-04-15T02:31:29.164Z,100410.81
2023-04-15T02:33:55.758Z,100410.53
2023-04-15T02:36:23.833Z,100401.66
2023-04-15T02:38:50.669Z,100399.63
2023-04-15T02:41:17.864Z,100401.19
2023-04-15T02:43:45.693Z,100406.59
2023-04-15T02:46:14.881Z,100410.22
2023-04-15T02:48:41.825Z,100404.50
2023-04-15T02:51:17.386Z,100394.91
2023-04-15T02:53:44.066Z,100400.59
2023-04-15T02:56:11.664Z,100397.44
2023-04-15T02:58:39.373Z,100404.22
2023-04-15T03:01:05.934Z,100399.78
2023-04-15T03:03:32.724Z,100409.16
2023-04-15T03:05:59.349Z,100395.88
2023-04-15T03:08:26.528Z,100399.50
2023-04-15T03:10:53.686Z,100402.84
2023-04-15T03:13:20.856Z,100398.44
2023-04-15T03:15:48.597Z,100402.06
2023-04-15T03:18:15.561Z,100388.28
2023-04-15T03:20:42.174Z,100395.56
2023-04-15T03:23:08.873Z,100389.06
2023-04-15T03:25:37.429Z,100383.38
2023-04-15T03:28:06.094Z,100389.56
2023-04-15T03:30:33.224Z,100392.41
2023-04-15T03:32:59.822Z,100386.69
2023-04-15T03:35:26.450Z,100394.00
2023-04-15T03:37:53.009Z,100394.00
2023-04-15T03:40:21.510Z,100390.84
2023-04-15T03:42:48.133Z,100382.78
2023-04-15T03:45:14.916Z,100379.44
2023-04-15T03:47:41.578Z,100387.69
2023-04-15T03:50:09.103Z,100385.63
2023-04-15T03:52:35.733Z,100386.91
2023-04-15T03:55:02.348Z,100383.28
2023-04-15T03:57:28.852Z,100381.97
2023-04-15T03:59:55.481Z,100384.81
2023-04-15T04:02:23.185Z,100382.78
2023-04-15T04:04:50.405Z,100384.06
2023-04-15T04:07:18.312Z,100383.56
2023-04-15T04:09:47.010Z,100391.34
2023-04-15T04:12:14.005Z,100389.75
2023-04-15T04:14:40.783Z,100390.53
2023-04-15T04:17:07.407Z,100387.69
2023-04-15T04:19:34.151Z,100394.19
2023-04-15T04:22:01.311Z,100391.34
2023-04-15T04:24:27.940Z,100389.25
2023-04-15T04:26:54.458Z,100388.97
2023-04-15T04:29:21.378Z,100394.66
2023-04-15T04:31:48.938Z,100397.03
2023-04-15T04:34:16.250Z,100397.19
2023-04-15T04:36:42.762Z,100397.81
2023-04-15T04:39:09.279Z,100401.44
2023-04-15T04:41:35.979Z,100397.03
2023-04-15T04:44:02.706Z,100392.88
2023-04-15T04:46:29.293Z,100396.56
2023-04-15T04:48:55.867Z,100396.56
2023-04-15T04:51:22.499Z,100402.25
2023-04-15T04:53:49.033Z,100398.59
2023-04-15T04:56:16.030Z,100398.09
2023-04-15T04:58:42.614Z,100399.41
2023-04-15T05:01:09.165Z,100409.50
2023-04-15T05:03:36.059Z,100406.16
2023-04-15T05:06:06.128Z,100414.22
2023-04-15T05:08:33.057Z,100411.09
2023-04-15T05:10:59.489Z,100406.97
2023-04-15T05:13:26.177Z,100406.97
2023-04-15T05:15:52.747Z,100405.69
2023-04-15T05:18:19.375Z,100409.81
2023-04-15T05:20:46.256Z,100407.28
2023-04-15T05:23:12.810Z,100408.53
2023-04-15T05:25:39.382Z,100408.53
2023-04-15T05:28:06.484Z,100400.78
2023-04-15T05:30:33.029Z,100410.13
2023-04-15T05:32:59.656Z,100410.13
2023-04-15T05:35:26.170Z,100406.00
2023-04-15T05:37:52.656Z,100404.41
2023-04-15T05:40:20.075Z,100398.72
2023-04-15T05:42:46.688Z,100408.84
2023-04-15T05:45:13.600Z,100407.56
2023-04-15T05:47:40.241Z,100414.03
2023-04-15T05:50:08.283Z,100412.00
2023-04-15T05:52:34.793Z,100416.88
2023-04-15T05:55:01.472Z,100409.63
2023-04-15T05:57:28.436Z,100420.56
2023-04-15T05:59:57.221Z,100411.69
2023-04-15T06:02:23.731Z,100422.09
2023-04-15T06:04:50.379Z,100420.84
2023-04-15T06:07:16.961Z,100430.66
2023-04-15T06:09:43.463Z,100442.38
2023-04-15T06:12:12.326Z,100443.94
2023-04-15T06:14:40.470Z,100438.22
2023-04-15T06:17:07.615Z,100441.09
2023-04-15T06:19:34.587Z,100456.94
2023-04-15T06:22:01.812Z,100446.31
2023-04-15T06:24:28.742Z,100454.38
2023-04-15T06:26:55.922Z,100452.00
2023-04-15T06:29:22.428Z,100449.63
2023-04-15T06:31:49.644Z,100455.19
2023-04-15T06:34:16.358Z,100450.25
2023-04-15T06:36:42.985Z,100451.03
2023-04-15T06:39:09.490Z,100444.25
2023-04-15T06:41:36.556Z,100463.25
2023-04-15T06:44:03.289Z,100463.25
2023-04-15T06:46:29.858Z,100467.66
2023-04-15T06:48:56.335Z,100464.81
2023-04-15T06:51:25.575Z,100477.03
2023-04-15T06:53:53.368Z,100467.66
2023-04-15T06:56:19.862Z,100464.81
2023-04-15T06:58:46.356Z,100477.78
2023-04-15T07:01:14.410Z,100472.09
2023-04-15T07:03:41.940Z,100486.34
2023-04-15T07:06:09.531Z,100485.88
2023-04-15T07:08:36.307Z,100479.34
2023-04-15T07:11:02.798Z,100486.63
2023-04-15T07:13:31.915Z,100483.78
2023-04-15T07:15:58.817Z,100477.78
2023-04-15T07:18:25.541Z,100486.16
2023-04-15T07:20:52.181Z,100477.31
2023-04-15T07:23:18.824Z,100483.31
2023-04-15T07:25:45.357Z,100487.75
2023-04-15T07:28:11.957Z,100494.22
2023-04-15T07:30:38.959Z,100490.09
2023-04-15T07:33:05.650Z,100495.81
2023-04-15T07:35:32.110Z,100493.25
2023-04-15T07:37:58.723Z,100497.69
2023-04-15T07:40:25.212Z,100497.69
2023-04-15T07:42:52.465Z,100500.84
2023-04-15T07:45:18.967Z,100501.81
2023-04-15T07:47:45.990Z,100502.38
2023-04-15T07:50:12.795Z,100503.97
2023-04-15T07:52:39.436Z,100499.53
2023-04-15T07:55:08.415Z,100497.78
2023-04-15T07:57:36.160Z,100505.56
2023-04-15T08:00:05.798Z,100506.66
2023-04-15T08:02:40.655Z,100502.56
2023-04-15T08:05:07.801Z,100511.09
2023-04-15T08:07:34.399Z,100510.63
2023-04-15T08:10:01.083Z,100515.06
2023-04-15T08:12:27.572Z,100517.44
2023-04-15T08:14:55.436Z,100513.75
2023-04-15T08:17:22.010Z,100513.28
2023-04-15T08:19:48.567Z,100515.66
2023-04-15T08:22:17.660Z,100515.66
2023-04-15T08:24:45.633Z,100513.09
2023-04-15T08:27:12.215Z,100521.63
2023-04-15T08:29:39.068Z,100526.84
2023-04-15T08:32:06.364Z,100525.09
2023-04-15T08:34:32.971Z,100524.81
2023-04-15T08:36:59.397Z,100526.69
2023-04-15T08:39:26.322Z,100526.69
2023-04-15T08:42:01.933Z,100533.97
2023-04-15T08:44:34.869Z,100535.53
2023-04-15T08:47:03.052Z,100531.44
2023-04-15T08:49:30.465Z,100535.84
2023-04-15T08:51:59.683Z,100541.84
2023-04-15T08:54:28.075Z,100540.28
2023-04-15T08:56:54.814Z,100538.97
2023-04-15T08:59:22.197Z,100538.69
2023-04-15T09:01:50.939Z,100540.56
2023-04-15T09:04:17.556Z,100542.16
2023-04-15T09:06:44.312Z,100553.88
2023-04-15T09:09:14.177Z,100546.88
2023-04-15T09:11:40.904Z,100548.16
2023-04-15T09:14:07.552Z,100553.66
2023-04-15T09:17:04.281Z,100544.03
2023-04-15T09:19:33.393Z,100558.09
2023-04-15T09:22:00.071Z,100556.84
2023-04-15T09:24:37.296Z,100557.63
2023-04-15T09:27:04.175Z,100555.53
2023-04-15T09:29:30.598Z,100560.28
2023-04-15T09:31:57.088Z,100567.09
2023-04-15T09:34:35.678Z,100566.75
2023-04-15T09:37:02.116Z,100560.41
2023-04-15T09:39:44.725Z,100561.97
2023-04-15T09:42:11.501Z,100567.66
2023-04-15T09:44:37.949Z,100566.69
2023-04-15T09:47:04.522Z,100569.25
2023-04-15T09:49:31.038Z,100573.00
2023-04-15T09:52:05.992Z,100573.78
2023-04-15T09:54:37.830Z,100583.44
2023-04-15T09:57:09.845Z,100574.56
2023-04-15T09:59:36.610Z,100582.47
2023-04-15T10:02:07.462Z,100579.63
2023-04-15T10:04:39.786Z,100581.47
2023-04-15T10:07:07.307Z,100587.50
2023-04-15T10:09:35.930Z,100592.41
2023-04-15T10:12:05.603Z,100595.09
2023-04-15T10:14:34.563Z,100586.53
2023-04-15T10:17:05.598Z,100594.88
2023-04-15T10:19:33.826Z,100599.63
2023-04-15T10:22:00.505Z,100607.38
2023-04-15T10:24:27.995Z,100605.13
2023-04-15T10:26:55.429Z,100610.06
2023-04-15T10:29:23.297Z,100605.75
2023-04-15T10:31:50.151Z,100601.59
2023-04-15T10:34:17.450Z,100614.88
2023-04-15T10:36:43.861Z,100611.06
2023-04-15T10:39:33.885Z,100601.69
2023-04-15T10:42:07.788Z,100603.88
2023-04-15T10:44:36.664Z,100607.81
2023-04-15T10:47:19.428Z,100605.25
2023-04-15T10:49:52.340Z,100606.31
2023-04-15T10:52:27.448Z,100603.56
2023-04-15T10:55:19.155Z,100606.72
2023-04-15T10:57:45.956Z,100607.31
2023-04-15T11:00:14.822Z,100602.69
2023-04-15T11:02:52.181Z,100602.19
2023-04-15T11:05:20.672Z,100608.50
2023-04-15T11:07:48.404Z,100609.06
2023-04-15T11:10:17.527Z,100609.69
2023-04-15T11:12:58.002Z,100604.25
2023-04-15T11:15:35.820Z,100606.91
2023-04-15T11:18:10.466Z,100610.84
2023-04-15T11:20:38.658Z,100618.72
2023-04-15T11:23:12.146Z,100621.91
2023-04-15T11:25:41.726Z,100610.47
2023-04-15T11:28:08.312Z,100612.63
2023-04-15T11:30:37.312Z,100616.34
2023-04-15T11:33:09.497Z,100619.78
2023-04-15T11:35:36.328Z,100618.03
2023-04-15T11:38:04.003Z,100617.22
2023-04-15T11:40:31.582Z,100631.91
2023-04-15T11:43:15.886Z,100627.78
2023-04-15T11:45:59.941Z,100635.16
2023-04-15T11:48:36.576Z,100633.91
2023-04-15T11:51:07.835Z,100634.47
2023-04-15T11:53:42.542Z,100633.47
2023-04-15T11:56:18.658Z,100630.31
2023-04-15T11:58:46.389Z,100632.25
2023-04-15T12:01:13.640Z,100637.75
2023-04-15T12:03:49.425Z,100636.50
2023-04-15T12:06:21.386Z,100638.56
2023-04-15T12:09:10.052Z,100653.53
2023-04-15T12:11:39.599Z,100649.69
2023-04-15T12:14:16.644Z,100656.47
2023-04-15T12:16:49.301Z,100662.00
2023-04-15T12:19:22.638Z,100647.38
2023-04-15T12:21:50.473Z,100660.47
2023-04-15T12:24:21.852Z,100659.97
2023-04-15T12:26:53.656Z,100664.72
2023-04-15T12:29:25.025Z,100662.94
2023-04-15T12:31:53.682Z,100669.75
2023-04-15T12:34:34.696Z,100666.88
2023-04-15T12:37:03.561Z,100661.44
2023-04-15T12:39:36.412Z,100670.31
2023-04-15T12:42:04.376Z,100670.09
2023-04-15T12:44:31.601Z,100678.47
2023-04-15T12:46:58.252Z,100666.22
2023-04-15T12:49:25.624Z,100670.69
2023-04-15T12:51:54.710Z,100674.91
2023-04-15T12:54:22.037Z,100682.50
2023-04-15T12:56:50.261Z,100675.47
2023-04-15T12:59:20.174Z,100691.66
2023-04-15T13:01:48.542Z,100686.22
2023-04-15T13:04:15.610Z,100693.50
2023-04-15T13:06:42.972Z,100698.50
2023-04-15T13:09:09.578Z,100700.09
2023-04-15T13:11:36.561Z,100702.47
2023-04-15T13:14:05.152Z,100694.66
2023-04-15T13:16:33.227Z,100707.97
2023-04-15T13:19:00.336Z,100705.09
2023-04-15T13:21:27.333Z,100711.91
2023-04-15T13:23:54.305Z,100711.41
2023-04-15T13:26:21.248Z,100723.16
2023-04-15T13:28:47.973Z,100721.06
2023-04-15T13:31:14.579Z,100713.28
2023-04-15T13:33:41.266Z,100723.44
2023-04-15T13:36:08.348Z,100727.88
2023-04-15T13:38:34.837Z,100731.84
2023-04-15T13:41:01.573Z,100727.66
2023-04-15T13:43:28.314Z,100730.03
2023-04-15T13:45:55.313Z,100737.34
2023-04-15T13:48:22.088Z,100737.34
2023-04-15T13:50:48.579Z,100736.03
2023-04-15T13:53:15.124Z,100747.50
2023-04-15T13:55:42.802Z,100740.50
2023-04-15T13:58:10.242Z,100754.03
2023-04-15T14:00:36.962Z,100752.72
2023-04-15T14:03:03.893Z,100760.03
2023-04-15T14:05:30.747Z,100759.25
2023-04-15T14:07:57.597Z,100761.63
2023-04-15T14:10:24.274Z,100762.41
2023-04-15T14:12:50.982Z,100758.25
2023-04-15T14:15:17.496Z,100775.47
2023-04-15T14:17:44.141Z,100770.50
2023-04-15T14:20:10.914Z,100768.41
2023-04-15T14:22:37.573Z,100779.09
2023-04-15T14:25:04.839Z,100771.78
2023-04-15T14:27:31.392Z,100773.38
2023-04-15T14:29:58.752Z,100777.00
2023-04-15T14:32:26.296Z,100779.38
2023-04-15T14:34:52.855Z,100780.19
2023-04-15T14:37:19.484Z,100784.63
2023-04-15T14:39:46.296Z,100786.19
2023-04-15T14:42:12.789Z,100791.94
2023-04-15T14:44:39.270Z,100793.28
2023-04-15T14:47:06.104Z,100802.66
2023-04-15T14:49:32.689Z,100803.75
2023-04-15T14:51:59.246Z,100800.88
2023-04-15T14:54:25.737Z,100801.66
2023-04-15T14:56:52.271Z,100793.06
2023-04-15T14:59:18.766Z,100803.28
2023-04-15T15:01:45.565Z,100806.22
2023-04-15T15:04:13.078Z,100809.56
2023-04-15T15:06:40.638Z,100811.94
2023-04-15T15:09:07.602Z,100815.59
2023-04-15T15:11:34.219Z,100815.91
2023-04-15T15:14:00.951Z,100825.56
2023-04-15T15:16:28.255Z,100820.63
2023-04-15T15:18:55.409Z,100822.19
2023-04-15T15:21:22.008Z,100824.56
2023-04-15T15:23:48.517Z,100821.41
2023-04-15T15:26:15.750Z,100831.88
2023-04-15T15:28:42.418Z,100835.00
2023-04-15T15:31:09.002Z,100836.59
2023-04-15T15:33:36.071Z,100834.00
2023-04-15T15:36:03.776Z,100842.13
2023-04-15T15:38:30.331Z,100849.44
2023-04-15T15:40:56.787Z,100846.06
2023-04-15T15:43:23.340Z,100843.19
2023-04-15T15:45:52.196Z,100843.47
2023-04-15T15:48:18.829Z,100850.00
2023-04-15T15:50:45.779Z,100852.84
2023-04-15T15:53:17.831Z,100847.41
2023-04-15T15:55:44.287Z,100844.53
2023-04-15T15:58:10.971Z,100850.56
2023-04-15T16:00:37.446Z,100844.03
2023-04-15T16:03:07.258Z,100853.94
2023-04-15T16:05:34.526Z,100860.25
2023-04-15T16:08:01.112Z,100859.19
2023-04-15T16:10:28.021Z,100869.16
2023-04-15T16:12:54.937Z,100869.94
2023-04-15T16:15:22.866Z,100873.28
2023-04-15T16:17:49.581Z,100881.41
2023-04-15T16:20:16.626Z,100881.41
2023-04-15T16:22:43.128Z,100885.53
2023-04-15T16:25:09.983Z,100885.84
2023-04-15T16:27:50.281Z,100888.72
2023-04-15T16:30:23.252Z,100886.34
2023-04-15T16:32:49.790Z,100898.88
2023-04-15T16:35:17.108Z,100896.00
2023-04-15T16:37:43.698Z,100900.97
2023-04-15T16:40:10.675Z,100904.13
2023-04-15T16:42:37.203Z,100906.22
2023-04-15T16:45:03.942Z,100908.00
2023-04-15T16:47:30.505Z,100905.72
2023-04-15T16:49:57.000Z,100919.75
2023-04-15T16:52:23.497Z,100916.38
2023-04-15T16:54:49.977Z,100926.28
2023-04-15T16:57:16.545Z,100927.06
2023-04-15T16:59:43.035Z,100934.59
2023-04-15T17:02:12.464Z,100942.69
2023-04-15T17:04:39.710Z,100941.13
2023-04-15T17:07:06.800Z,100931.44
2023-04-15T17:09:33.525Z,100942.63
2023-04-15T17:12:01.033Z,100951.22
2023-04-15T17:14:28.852Z,100949.34
2023-04-15T17:16:55.875Z,100956.97
2023-04-15T17:19:22.493Z,100965.28
2023-04-15T17:21:50.582Z,100967.34
2023-04-15T17:24:17.227Z,100964.69
2023-04-15T17:26:43.848Z,100967.06
2023-04-15T17:29:10.402Z,100977.75
2023-04-15T17:31:37.108Z,100985.25
2023-04-15T17:34:07.804Z,100987.34
2023-04-15T17:36:37.373Z,100992.78
2023-04-15T17:39:04.660Z,100997.72
2023-04-15T17:41:31.372Z,101001.09
2023-04-15T17:43:57.872Z,101000.81
2023-04-15T17:46:24.639Z,101003.66
2023-04-15T17:48:51.168Z,100999.72
2023-04-15T17:51:17.810Z,101014.25
2023-04-15T17:53:44.288Z,101018.72
2023-04-15T17:56:11.023Z,101022.84
2023-04-15T17:58:39.373Z,101027.03
2023-04-15T18:01:06.605Z,101032.44
2023-04-15T18:03:33.280Z,101022.28
2023-04-15T18:06:01.308Z,101031.38
2023-04-15T18:08:28.833Z,101044.13
2023-04-15T18:10:55.266Z,101044.63
2023-04-15T18:13:21.720Z,101042.25
2023-04-15T18:15:51.627Z,101041.66
2023-04-15T18:18:18.332Z,101047.88
2023-04-15T18:20:44.778Z,101052.78
2023-04-15T18:23:11.423Z,101050.41
2023-04-15T18:25:38.341Z,101058.72
2023-04-15T18:28:05.593Z,101066.56
2023-04-15T18:30:32.125Z,101068.31
2023-04-15T18:32:58.779Z,101070.91
2023-04-15T18:35:25.276Z,101074.47
2023-04-15T18:37:52.838Z,101086.50
2023-04-15T18:40:19.436Z,101091.94
2023-04-15T18:42:45.942Z,101098.94
2023-04-15T18:45:12.486Z,101095.78
2023-04-15T18:47:39.167Z,101095.50
2023-04-15T18:50:06.747Z,101104.59
2023-04-15T18:52:34.131Z,101106.63
2023-04-15T18:55:02.994Z,101107.66
2023-04-15T18:57:34.784Z,101117.81
2023-04-15T19:00:01.993Z,101116.75
2023-04-15T19:02:28.634Z,101114.53
2023-04-15T19:04:55.204Z,101124.22
2023-04-15T19:07:22.126Z,101124.72
2023-04-15T19:09:48.892Z,101124.91
2023-04-15T19:12:15.320Z,101127.78
2023-04-15T19:14:41.756Z,101135.75
2023-04-15T19:17:08.231Z,101140.22
2023-04-15T19:19:34.740Z,101138.63
2023-04-15T19:22:01.681Z,101135.47
2023-04-15T19:24:28.265Z,101143.44
2023-04-15T19:26:54.717Z,101151.56
2023-04-15T19:29:21.871Z,101161.94
2023-04-15T19:31:48.366Z,101164.00
2023-04-15T19:34:14.829Z,101165.78
2023-04-15T19:36:41.357Z,101167.84
2023-04-15T19:39:08.418Z,101169.63
2023-04-15T19:41:35.022Z,101163.88
2023-04-15T19:44:02.959Z,101169.31
2023-04-15T19:46:29.560Z,101174.72
2023-04-15T19:48:56.161Z,101175.69
2023-04-15T19:51:22.710Z,101176.03
2023-04-15T19:53:53.871Z,101178.06
2023-04-15T19:56:20.670Z,101184.00
2023-04-15T19:58:52.774Z,101179.06
2023-04-15T20:01:20.341Z,101186.56
2023-04-15T20:03:47.466Z,101192.28
2023-04-15T20:06:15.639Z,101184.66
2023-04-15T20:08:42.150Z,101188.50
2023-04-15T20:11:09.854Z,101184.56
2023-04-15T20:13:36.811Z,101185.34
2023-04-15T20:16:03.455Z,101193.94
2023-04-15T20:18:29.971Z,101196.50
2023-04-15T20:20:56.402Z,101190.16
2023-04-15T20:23:22.813Z,101190.44
2023-04-15T20:25:49.217Z,101198.75
2023-04-15T20:28:17.875Z,101200.50
2023-04-15T20:30:44.440Z,101198.94
2023-04-15T20:33:11.566Z,101209.56
2023-04-15T20:35:38.846Z,101210.56
2023-04-15T20:38:05.738Z,101214.41
2023-04-15T20:40:33.712Z,101212.31
2023-04-15T20:43:00.540Z,101205.19
2023-04-15T20:45:26.960Z,101210.13
2023-04-15T20:47:55.090Z,101220.75
2023-04-15T20:50:21.614Z,101222.25
2023-04-15T20:52:48.020Z,101216.03
2023-04-15T20:55:14.493Z,101225.09
2023-04-15T20:57:41.115Z,101221.31
2023-04-15T21:00:09.811Z,101233.84
2023-04-15T21:02:36.943Z,101233.53
2023-04-15T21:05:03.624Z,101224.31
2023-04-15T21:07:30.069Z,101238.63
2023-04-15T21:09:56.618Z,101235.47
2023-04-15T21:12:23.166Z,101243.75
2023-04-15T21:14:49.861Z,101253.13
2023-04-15T21:17:16.407Z,101244.72
2023-04-15T21:19:43.009Z,101246.94
2023-04-15T21:22:09.791Z,101243.78
2023-04-15T21:24:36.198Z,101256.81
2023-04-15T21:27:02.818Z,101255.69
2023-04-15T21:29:29.279Z,101252.53
2023-04-15T21:31:55.733Z,101265.72
2023-04-15T21:34:22.185Z,101264.16
2023-04-15T21:36:48.606Z,101268.75
2023-04-15T21:39:15.228Z,101270.53
2023-04-15T21:41:41.724Z,101274.97
2023-04-15T21:44:08.215Z,101273.06
2023-04-15T21:46:35.922Z,101280.38
2023-04-15T21:49:03.471Z,101281.63
2023-04-15T21:51:30.063Z,101287.06
2023-04-15T21:53:56.878Z,101292.47
2023-04-15T21:56:24.553Z,101290.88
2023-04-15T21:58:54.036Z,101306.41
2023-04-15T22:01:21.080Z,101300.38
2023-04-15T22:03:47.857Z,101310.22
2023-04-15T22:06:14.447Z,101309.91
2023-04-15T22:08:55.151Z,101303.88
2023-04-15T22:11:30.181Z,101307.38
2023-04-15T22:13:57.674Z,101308.97
2023-04-15T22:16:27.497Z,101323.25
2023-04-15T22:18:55.186Z,101314.38
2023-04-15T22:21:22.016Z,101312.47
2023-04-15T22:23:49.219Z,101320.25
2023-04-15T22:26:15.786Z,101324.84
2023-04-15T22:28:42.206Z,101322.00
2023-04-15T22:31:08.782Z,101325.31
2023-04-15T22:33:35.419Z,101326.63
2023-04-15T22:36:01.971Z,101332.81
2023-04-15T22:38:28.423Z,101332.81
2023-04-15T22:40:54.968Z,101332.47
2023-04-15T22:43:21.524Z,101330.09
2023-04-15T22:45:50.517Z,101350.59
2023-04-15T22:48:18.133Z,101343.13
2023-04-15T22:50:44.678Z,101351.22
2023-04-15T22:53:11.237Z,101354.06
2023-04-15T22:55:37.643Z,101353.75
2023-04-15T22:58:04.184Z,101356.31
2023-04-15T23:00:30.612Z,101353.47
2023-04-15T23:02:57.156Z,101356.59
2023-04-15T23:05:23.790Z,101359.81
2023-04-15T23:07:50.816Z,101359.47
2023-04-15T23:10:17.236Z,101365.19
2023-04-15T23:12:43.685Z,101355.63
2023-04-15T23:15:10.530Z,101360.09
2023-04-15T23:17:37.020Z,101366.28
2023-04-15T23:20:03.601Z,101362.97
2023-04-15T23:22:30.581Z,101374.06
2023-04-15T23:24:56.998Z,101362.81
2023-04-15T23:27:23.453Z,101367.72
2023-04-15T23:29:49.895Z,101370.25
2023-04-15T23:32:16.320Z,101371.03
2023-04-15T23:34:42.798Z,101363.75
2023-04-15T23:37:09.217Z,101376.91
2023-04-15T23:39:35.614Z,101363.25
2023-04-15T23:42:02.176Z,101368.19
2023-04-15T23:44:28.595Z,101374.22
2023-04-15T23:46:55.052Z,101364.50
2023-04-15T23:49:21.558Z,101371.03
2023-04-15T23:51:48.040Z,101370.69
2023-04-15T23:54:14.910Z,101359.44
2023-04-15T23:56:41.356Z,101362.59
2023-04-15T23:59:08.061Z,101370.84
